• Join FlightAware (Why Join?)
  • Login
  • US Flag 
11:21AM EDT


 

Airport Tracker/Info


-or-


 

Live Flight TrackerFlight Track Log ✈ SWA499 ✈ 29-Apr-2013 ✈ KDEN - KMCI

Flight Track Log - Related Links

Times and Time Zones

All times are in EDT time to prevent confusion due to time zone crossing. See the SWA499 flight status page for this flight to view local times or setup timezone preferences in your user account.

Time Position Orientation Groundspeed Altitude Reporting Facility
EDT Latitude Longitude Course Direction KTS MPH feet Rate Location/Type
12:32PM 39.8167 -104.6333 65° Northeast 186 214 6,700  Level Denver TRACON
12:32PM 39.8275 -104.6036 65° Northeast 193 222 7,200 1,620 Climbing Denver Center
12:33PM 39.8614 -104.5308 59° Northeast 242 278 8,900 1,320 Climbing Denver Center
12:34PM 39.9058 -104.4258 61° Northeast 312 359 10,000 1,860 Climbing Denver Center
12:35PM 39.9133 -104.3006 85° East 347 399 12,800 3,180 Climbing Denver Center
12:36PM 39.9083 -104.1642 93° East 351 404 16,600 3,060 Climbing Denver Center
12:37PM 39.9006 -104.0267 94° East 384 442 19,200 2,640 Climbing Denver Center
12:38PM 39.8908 -103.8697 95° East 410 472 22,100 2,460 Climbing Denver Center
12:39PM 39.8856 -103.7206 93° East 416 479 24,400 2,280 Climbing Denver Center
12:40PM 39.9036 -103.5614 82° East 437 503 26,900 2,220 Climbing Denver Center
12:41PM 39.9222 -103.4000 81° East 448 516 29,100 1,980 Climbing Denver Center
12:42PM 39.9406 -103.2328 82° East 461 531 31,000 2,160 Climbing Denver Center
12:43PM 39.9614 -103.0381 82° East 461 531 33,700 2,160 Climbing Denver Center
12:44PM 39.9803 -102.8758 81° East 452 520 35,500 1,560 Climbing Denver Center
12:46PM 39.9967 -102.7108 83° East 455 524 37,000 1,200 Climbing Denver Center
12:47PM 40.0158 -102.5408 82° East 458 527 38,000 960 Climbing Denver Center
12:48PM 40.0328 -102.3811 82° East 464 534 39,000 480 Climbing Denver Center
12:49PM 40.0517 -102.1958 82° East 461 531 39,000 -420 Level Denver Center
12:50PM 40.0669 -102.0383 83° East 458 527 38,200 -840 Descending Denver Center
12:51PM 40.0875 -101.8528 82° East 464 534 37,300 -600 Descending Denver Center
12:52PM 40.0953 -101.6919 86° East 466 536 37,000 -180 Descending Denver Center
12:53PM 40.1022 -101.5039 87° East 466 536 37,000  Level Denver Center
12:54PM 40.1094 -101.3422 87° East 466 536 37,000  Level Denver Center
12:55PM 40.1169 -101.1533 87° East 468 539 37,000  Level Denver Center
12:56PM 40.1222 -100.9917 88° East 468 539 37,000  Level Denver Center
12:57PM 40.1292 -100.8028 87° East 469 540 37,000  Level Denver Center
12:58PM 40.1342 -100.6419 88° East 467 537 37,000  Level Denver Center
12:59PM 40.1411 -100.4550 87° East 463 533 37,000  Level Denver Center
01:00PM 40.1458 -100.2928 88° East 469 540 37,000  Level Denver Center
01:01PM 40.1519 -100.1036 88° East 468 539 37,000  Level Denver Center
01:02PM 40.1578 -99.8964 88° East 469 540 37,000  Level Denver Center
01:03PM 40.1625 -99.7256 88° East 471 542 37,000  Level Denver Center
01:04PM 40.1664 -99.5553 88° East 470 541 37,000  Level Denver Center
01:05PM 40.1717 -99.3836 88° East 473 544 37,000  Level Denver Center
01:06PM 40.1744 -99.2125 89° East 472 543 37,000  Level Denver Center
01:07PM 40.1789 -99.0058 88° East 477 549 37,000  Level Denver Center
01:08PM 40.1822 -98.8706 88° East 472 543 37,000  Level Denver Center
01:09PM 40.1844 -98.7342 89° East 473 544 37,000  Level Minneapolis Center
01:10PM 40.1869 -98.5294 89° East 472 543 37,000  Level Minneapolis Center
01:11PM 40.1897 -98.3589 89° East 471 542 37,000  Level Minneapolis Center
01:12PM 40.1922 -98.1892 89° East 470 541 37,000  Level Minneapolis Center
01:14PM 40.1942 -97.9825 89° East 474 545 37,000  Level Minneapolis Center
01:15PM 40.1958 -97.8117 89° East 472 543 37,000  Level Minneapolis Center
01:16PM 40.1978 -97.6408 89° East 471 542 37,000  Level Minneapolis Center
01:17PM 40.1981 -97.4033 90° East 470 541 37,000 -360 Level Minneapolis Center
01:18PM 40.2000 -97.2597 89° East 466 536 36,300 -1,320 Descending Minneapolis Center
01:19PM 40.2000 -97.0542 90° East 471 542 34,300 -1,980 Descending Minneapolis Center
01:20PM 40.2017 -96.8758 89° East 486 559 32,300 -2,280 Descending Minneapolis Center
01:21PM 40.2008 -96.6997 90° East 488 562 29,700 -2,460 Descending Minneapolis Center
01:22PM 40.2011 -96.5281 90° East 478 550 27,300 -2,280 Descending Minneapolis Center
01:23PM 40.2006 -96.3633 90° East 462 532 25,000 -2,220 Descending Minneapolis Center
01:24PM 40.1947 -96.2061 93° East 444 511 22,800 -1,800 Descending Minneapolis Center
01:25PM 40.1286 -96.0458 118° Southeast 424 488 21,400 -1,200 Descending Minneapolis Center
01:26PM 40.0725 -95.9194 120° Southeast 409 471 20,400 -1,320 Descending Minneapolis Center
01:27PM 40.0167 -95.7919 120° Southeast 408 470 18,700 -2,040 Descending Minneapolis Center
01:28PM 39.9617 -95.6683 120° Southeast 403 464 16,300 -2,280 Descending Minneapolis Center
01:29PM 39.9086 -95.5500 120° Southeast 394 453 14,100 -2,220 Descending Minneapolis Center
01:30PM 39.8697 -95.4656 121° Southeast 370 426 12,600 -1,440 Descending Kansas City Center
01:31PM 39.8078 -95.3769 132° Southeast 345 397 11,700 -1,020 Descending Kansas City Center
01:32PM 39.7308 -95.2986 142° Southeast 313 360 10,500 -1,260 Descending Kansas City Center
01:33PM 39.6706 -95.2347 141° Southeast 294 338 9,100 -1,380 Descending Kansas City Center
01:34PM 39.6394 -95.1356 112° Southeast 314 361 7,700 -1,020 Descending Kansas City Center
01:35PM 39.6069 -95.0211 110° East 301 346 7,000 -840 Descending Kansas City Center
01:36PM 39.5814 -94.9264 109° East 291 335 6,000 -540 Descending Kansas City Center
01:37PM 39.5533 -94.8239 110° East 271 312 6,000 -540 Level Kansas City Center
01:38PM 39.5303 -94.7386 109° East 262 302 5,000 -960 Descending Kansas City Center
01:39PM 39.4711 -94.6892 147° Southeast 232 267 4,100 -960 Descending Kansas City Center
01:40PM 39.4231 -94.6914 182° South 179 206 3,100 -1,020 Descending Kansas City Center
01:41PM 39.3775 -94.7044 192° South 150 173 2,100 -840 Descending Kansas City Center
01:42PM 39.3428 -94.7147 193° South 136 157 1,400 -600 Descending Kansas City Center
01:43PM 39.3086 -94.7250 193° South 135 155 900 -540 Descending Kansas City Center